createdAt,value
2017-09-26T00:01:08.824Z,12.18
2017-09-26T00:03:35.193Z,11.12
2017-09-26T00:06:02.855Z,10.35
2017-09-26T00:08:30.173Z,10.27
2017-09-26T00:10:56.400Z,8.10
2017-09-26T00:13:23.305Z,9.52
2017-09-26T00:15:50.279Z,10.45
2017-09-26T00:18:16.885Z,10.43
2017-09-26T00:20:44.807Z,11.27
2017-09-26T00:23:11.538Z,11.95
2017-09-26T00:25:39.616Z,14.18
2017-09-26T00:28:07.388Z,11.23
2017-09-26T00:30:33.633Z,12.85
2017-09-26T00:33:00.799Z,10.02
2017-09-26T00:35:28.249Z,10.00
2017-09-26T00:37:56.854Z,9.43
2017-09-26T00:40:24.049Z,10.90
2017-09-26T00:42:50.928Z,11.88
2017-09-26T00:45:18.557Z,11.75
2017-09-26T00:47:45.798Z,11.35
2017-09-26T00:50:12.445Z,11.00
2017-09-26T00:52:39.471Z,11.52
2017-09-26T00:55:05.694Z,11.88
2017-09-26T00:57:32.001Z,10.90
2017-09-26T00:59:58.566Z,10.10
2017-09-26T01:02:25.736Z,11.07
2017-09-26T01:04:53.393Z,9.50
2017-09-26T01:07:25.965Z,9.02
2017-09-26T01:09:53.631Z,9.60
2017-09-26T01:12:19.987Z,10.82
2017-09-26T01:14:47.586Z,9.10
2017-09-26T01:17:13.781Z,10.05
2017-09-26T01:19:40.139Z,10.52
2017-09-26T01:22:06.407Z,10.98
2017-09-26T01:24:32.928Z,10.95
2017-09-26T01:26:59.992Z,8.77
2017-09-26T01:29:26.214Z,7.72
2017-09-26T01:31:52.417Z,9.57
2017-09-26T01:34:19.300Z,8.52
2017-09-26T01:36:46.042Z,8.50
2017-09-26T01:39:12.782Z,9.07
2017-09-26T01:41:39.555Z,8.82
2017-09-26T01:44:07.144Z,9.35
2017-09-26T01:46:33.936Z,9.25
2017-09-26T01:49:01.245Z,7.93
2017-09-26T01:51:27.558Z,9.00
2017-09-26T01:53:53.814Z,8.40
2017-09-26T01:56:22.732Z,10.43
2017-09-26T01:58:49.772Z,11.35
2017-09-26T02:01:16.301Z,9.07
2017-09-26T02:03:42.771Z,7.62
2017-09-26T02:06:10.300Z,10.57
2017-09-26T02:08:36.528Z,10.30
2017-09-26T02:11:04.588Z,10.57
2017-09-26T02:13:32.274Z,8.70
2017-09-26T02:15:58.460Z,10.77
2017-09-26T02:18:24.701Z,8.57
2017-09-26T02:20:50.954Z,11.95
2017-09-26T02:23:17.798Z,11.60
2017-09-26T02:25:44.801Z,10.85
2017-09-26T02:28:11.168Z,8.77
2017-09-26T02:30:38.860Z,17.37
2017-09-26T02:33:07.138Z,15.05
2017-09-26T02:35:34.108Z,12.73
2017-09-26T02:38:00.302Z,11.93
2017-09-26T02:40:27.787Z,11.52
2017-09-26T02:42:55.282Z,10.93
2017-09-26T02:45:22.281Z,9.48
2017-09-26T02:47:49.214Z,10.65
2017-09-26T02:50:16.169Z,9.30
2017-09-26T02:52:43.072Z,11.15
2017-09-26T02:55:09.755Z,9.80
2017-09-26T02:57:36.587Z,10.02
2017-09-26T03:00:05.380Z,12.45
2017-09-26T03:02:31.591Z,12.30
2017-09-26T03:04:59.710Z,11.40
2017-09-26T03:07:25.922Z,11.05
2017-09-26T03:09:52.798Z,11.52
2017-09-26T03:12:19.538Z,10.20
2017-09-26T03:14:46.285Z,10.98
2017-09-26T03:17:12.503Z,10.15
2017-09-26T03:19:38.725Z,11.05
2017-09-26T03:22:05.632Z,12.35
2017-09-26T03:24:32.025Z,13.20
2017-09-26T03:26:58.818Z,12.20
2017-09-26T03:29:25.354Z,10.00
2017-09-26T03:31:53.052Z,8.20
2017-09-26T03:34:20.136Z,9.68
2017-09-26T03:36:47.210Z,8.32
2017-09-26T03:39:14.076Z,9.30
2017-09-26T03:41:40.921Z,9.15
2017-09-26T03:44:07.736Z,10.10
2017-09-26T03:46:33.971Z,9.73
2017-09-26T03:49:01.171Z,9.02
2017-09-26T03:51:28.064Z,7.60
2017-09-26T03:53:54.829Z,11.02
2017-09-26T03:56:21.019Z,10.48
2017-09-26T03:58:47.890Z,11.10
2017-09-26T04:01:14.658Z,10.95
2017-09-26T04:03:41.037Z,11.68
2017-09-26T04:06:07.992Z,10.75
2017-09-26T04:08:34.246Z,10.65
2017-09-26T04:11:01.371Z,8.70
2017-09-26T04:13:27.754Z,11.20
2017-09-26T04:15:54.662Z,10.18
2017-09-26T04:18:21.443Z,11.05
2017-09-26T04:20:47.670Z,11.45
2017-09-26T04:23:14.539Z,9.30
2017-09-26T04:25:41.517Z,11.70
2017-09-26T04:28:09.547Z,10.43
2017-09-26T04:30:36.588Z,10.60
2017-09-26T04:33:04.333Z,11.12
2017-09-26T04:35:30.912Z,9.50
2017-09-26T04:37:57.794Z,9.55
2017-09-26T04:40:24.030Z,9.93
2017-09-26T04:42:50.309Z,10.25
2017-09-26T04:45:18.291Z,10.30
2017-09-26T04:47:44.751Z,10.23
2017-09-26T04:50:12.827Z,11.00
2017-09-26T04:52:39.419Z,9.73
2017-09-26T04:55:06.453Z,9.88
2017-09-26T04:57:33.392Z,10.77
2017-09-26T05:00:00.461Z,9.57
2017-09-26T05:02:27.288Z,10.75
2017-09-26T05:04:53.803Z,11.10
2017-09-26T05:07:20.851Z,10.32
2017-09-26T05:09:48.365Z,10.60
2017-09-26T05:12:15.207Z,11.23
2017-09-26T05:14:42.678Z,10.55
2017-09-26T05:17:10.240Z,13.00
2017-09-26T05:19:36.449Z,13.85
2017-09-26T05:22:03.300Z,15.20
2017-09-26T05:24:30.069Z,14.55
2017-09-26T05:26:58.109Z,15.80
2017-09-26T05:29:24.392Z,17.83
2017-09-26T05:31:50.843Z,16.30
2017-09-26T05:34:18.334Z,14.90
2017-09-26T05:36:46.239Z,17.73
2017-09-26T05:39:13.816Z,16.85
2017-09-26T05:41:41.109Z,18.58
2017-09-26T05:44:07.308Z,19.35
2017-09-26T05:46:33.854Z,16.08
2017-09-26T05:49:00.877Z,14.27
2017-09-26T05:51:27.182Z,14.80
2017-09-26T05:53:54.430Z,12.82
2017-09-26T05:56:21.383Z,13.48
2017-09-26T05:58:48.872Z,14.32
2017-09-26T06:01:15.725Z,14.60
2017-09-26T06:03:41.960Z,16.62
2017-09-26T06:06:08.642Z,13.65
2017-09-26T06:08:36.625Z,13.50
2017-09-26T06:11:04.343Z,13.48
2017-09-26T06:13:31.137Z,11.68
2017-09-26T06:15:58.903Z,10.82
2017-09-26T06:18:26.146Z,11.00
2017-09-26T06:20:52.376Z,10.25
2017-09-26T06:23:20.182Z,11.40
2017-09-26T06:25:47.353Z,11.45
2017-09-26T06:28:14.265Z,14.00
2017-09-26T06:30:40.468Z,11.93
2017-09-26T06:33:06.828Z,10.00
2017-09-26T06:35:33.775Z,10.05
2017-09-26T06:38:01.506Z,10.30
2017-09-26T06:40:27.957Z,10.10
2017-09-26T06:42:54.649Z,9.63
2017-09-26T06:45:21.538Z,10.23
2017-09-26T06:47:48.036Z,10.43
2017-09-26T06:50:15.572Z,9.83
2017-09-26T06:52:42.305Z,9.13
2017-09-26T06:55:09.552Z,8.60
2017-09-26T06:57:36.484Z,9.63
2017-09-26T07:00:03.477Z,9.53
2017-09-26T07:02:30.445Z,9.93
2017-09-26T07:04:56.707Z,11.00
2017-09-26T07:07:23.848Z,10.87
2017-09-26T07:09:52.141Z,9.57
2017-09-26T07:12:18.502Z,10.43
2017-09-26T07:14:45.888Z,10.57
2017-09-26T07:17:14.177Z,9.90
2017-09-26T07:19:40.390Z,14.00
2017-09-26T07:22:06.621Z,12.00
2017-09-26T07:24:32.868Z,15.23
2017-09-26T07:27:00.504Z,13.77
2017-09-26T07:29:27.245Z,14.60
2017-09-26T07:31:53.471Z,13.60
2017-09-26T07:34:19.729Z,12.43
2017-09-26T07:36:46.230Z,12.10
2017-09-26T07:39:12.533Z,12.13
2017-09-26T07:41:44.556Z,11.53
2017-09-26T07:44:12.715Z,11.57
2017-09-26T07:46:38.939Z,11.67
2017-09-26T07:49:05.509Z,11.50
2017-09-26T07:51:33.259Z,11.50
2017-09-26T07:54:00.136Z,11.57
2017-09-26T07:56:26.744Z,11.70
2017-09-26T07:59:10.193Z,10.93
2017-09-26T08:01:37.768Z,11.67
2017-09-26T08:04:04.565Z,10.40
2017-09-26T08:06:31.547Z,11.20
2017-09-26T08:08:58.810Z,9.97
2017-09-26T08:11:25.782Z,10.43
2017-09-26T08:13:52.012Z,10.30
2017-09-26T08:16:18.212Z,10.60
2017-09-26T08:18:45.166Z,10.40
2017-09-26T08:21:12.943Z,9.43
2017-09-26T08:23:40.458Z,10.13
2017-09-26T08:26:06.669Z,11.00
2017-09-26T08:28:33.622Z,10.40
2017-09-26T08:31:00.363Z,9.17
2017-09-26T08:33:27.481Z,8.20
2017-09-26T08:35:54.347Z,8.40
2017-09-26T08:38:20.665Z,8.30
2017-09-26T08:40:48.982Z,8.60
2017-09-26T08:43:16.054Z,8.27
2017-09-26T08:45:42.310Z,6.90
2017-09-26T08:48:09.385Z,8.77
2017-09-26T08:50:36.130Z,7.33
2017-09-26T08:53:02.712Z,6.40
2017-09-26T08:55:29.519Z,6.07
2017-09-26T08:57:56.016Z,6.63
2017-09-26T09:00:23.044Z,7.67
2017-09-26T09:02:51.588Z,7.20
2017-09-26T09:05:19.330Z,7.10
2017-09-26T09:07:47.926Z,6.80
2017-09-26T09:10:16.925Z,6.97
2017-09-26T09:12:43.178Z,7.67
2017-09-26T09:15:09.400Z,7.33
2017-09-26T09:17:37.393Z,8.10
2017-09-26T09:20:04.171Z,7.20
2017-09-26T09:22:31.191Z,8.00
2017-09-26T09:24:58.253Z,6.63
2017-09-26T09:27:25.296Z,7.13
2017-09-26T09:29:52.290Z,7.00
2017-09-26T09:32:19.662Z,6.63
2017-09-26T09:34:47.269Z,6.97
2017-09-26T09:37:14.004Z,6.53
2017-09-26T09:39:42.028Z,6.10
2017-09-26T09:42:08.769Z,7.13
2017-09-26T09:44:35.078Z,7.07
2017-09-26T09:47:03.205Z,6.90
2017-09-26T09:49:30.899Z,8.00
2017-09-26T09:51:57.791Z,7.00
2017-09-26T09:54:24.958Z,7.70
2017-09-26T09:56:51.249Z,6.80
2017-09-26T09:59:19.297Z,6.70
2017-09-26T10:01:47.035Z,7.23
2017-09-26T10:04:14.586Z,7.70
2017-09-26T10:06:40.911Z,7.73
2017-09-26T10:09:07.114Z,7.00
2017-09-26T10:11:33.570Z,6.83
2017-09-26T10:13:59.865Z,4.80
2017-09-26T10:16:26.073Z,6.97
2017-09-26T10:18:53.037Z,7.17
2017-09-26T10:21:20.079Z,7.27
2017-09-26T10:23:47.046Z,6.60
2017-09-26T10:26:14.195Z,7.13
2017-09-26T10:28:41.041Z,7.90
2017-09-26T10:31:07.449Z,7.90
2017-09-26T10:33:34.401Z,6.70
2017-09-26T10:36:00.856Z,6.53
2017-09-26T10:38:27.182Z,7.57
2017-09-26T10:40:55.090Z,7.93
2017-09-26T10:43:21.516Z,7.90
2017-09-26T10:45:47.735Z,6.80
2017-09-26T10:48:14.970Z,6.20
2017-09-26T10:50:42.117Z,6.73
2017-09-26T10:53:08.594Z,7.00
2017-09-26T10:55:36.170Z,7.57
2017-09-26T10:58:04.694Z,9.00
2017-09-26T11:00:31.547Z,6.53
2017-09-26T11:02:58.603Z,5.87
2017-09-26T11:05:25.468Z,6.80
2017-09-26T11:07:51.961Z,6.53
2017-09-26T11:10:18.976Z,7.77
2017-09-26T11:12:46.945Z,6.37
2017-09-26T11:15:13.469Z,7.50
2017-09-26T11:17:40.921Z,8.37
2017-09-26T11:20:08.036Z,6.90
2017-09-26T11:22:34.974Z,6.67
2017-09-26T11:25:03.044Z,7.90
2017-09-26T11:27:29.774Z,7.47
2017-09-26T11:29:56.479Z,7.40
2017-09-26T11:32:23.040Z,6.90
2017-09-26T11:34:49.634Z,7.23
2017-09-26T11:37:17.998Z,6.03
2017-09-26T11:39:44.656Z,6.77
2017-09-26T11:42:12.156Z,7.03
2017-09-26T11:44:38.376Z,6.90
2017-09-26T11:47:04.643Z,6.67
2017-09-26T11:49:31.884Z,7.00
2017-09-26T11:51:58.230Z,7.13
2017-09-26T11:54:25.127Z,6.83
2017-09-26T11:56:51.858Z,6.97
2017-09-26T11:59:18.933Z,6.13
2017-09-26T12:01:45.768Z,6.57
2017-09-26T12:04:12.028Z,5.97
2017-09-26T12:06:38.806Z,6.50
2017-09-26T12:09:05.580Z,7.27
2017-09-26T12:11:32.074Z,6.90
2017-09-26T12:14:05.534Z,6.93
2017-09-26T12:16:32.544Z,6.43
2017-09-26T12:18:58.744Z,6.40
2017-09-26T12:21:26.264Z,6.90
2017-09-26T12:23:52.489Z,6.40
2017-09-26T12:26:19.638Z,7.37
2017-09-26T12:28:48.188Z,6.03
2017-09-26T12:31:14.620Z,5.60
2017-09-26T12:33:41.742Z,5.70
2017-09-26T12:36:08.700Z,6.80
2017-09-26T12:38:35.644Z,6.60
2017-09-26T12:41:02.299Z,6.70
2017-09-26T12:43:28.555Z,6.57
2017-09-26T12:45:54.799Z,7.10
2017-09-26T12:48:21.004Z,6.70
2017-09-26T12:50:48.321Z,6.53
2017-09-26T12:53:14.537Z,5.83
2017-09-26T12:55:40.744Z,6.20
2017-09-26T12:58:08.298Z,6.80
2017-09-26T13:00:36.169Z,6.60
2017-09-26T13:03:03.159Z,6.73
2017-09-26T13:05:29.978Z,6.00
2017-09-26T13:07:56.945Z,6.10
2017-09-26T13:10:23.365Z,6.10
2017-09-26T13:12:50.392Z,5.90
2017-09-26T13:15:18.326Z,7.43
2017-09-26T13:17:44.538Z,6.40
2017-09-26T13:20:10.748Z,7.20
2017-09-26T13:22:36.974Z,7.37
2017-09-26T13:25:03.356Z,6.50
2017-09-26T13:27:31.017Z,6.73
2017-09-26T13:29:57.973Z,6.93
2017-09-26T13:32:26.025Z,6.70
2017-09-26T13:34:53.278Z,6.80
2017-09-26T13:37:20.856Z,6.07
2017-09-26T13:39:48.268Z,8.07
2017-09-26T13:42:14.544Z,7.07
2017-09-26T13:44:42.185Z,6.10
2017-09-26T13:47:08.977Z,6.80
2017-09-26T13:49:35.194Z,5.73
2017-09-26T13:52:02.362Z,5.47
2017-09-26T13:54:30.132Z,5.10
2017-09-26T13:56:56.398Z,4.83
2017-09-26T13:59:22.708Z,5.00
2017-09-26T14:01:50.708Z,4.80
2017-09-26T14:04:16.969Z,5.10
2017-09-26T14:06:43.841Z,4.87
2017-09-26T14:09:10.455Z,4.77
2017-09-26T14:11:37.511Z,5.13
2017-09-26T14:14:04.346Z,5.77
2017-09-26T14:16:30.877Z,5.20
2017-09-26T14:18:58.239Z,4.57
2017-09-26T14:21:26.252Z,4.80
2017-09-26T14:23:53.518Z,4.53
2017-09-26T14:26:20.554Z,5.33
2017-09-26T14:28:46.780Z,5.37
2017-09-26T14:31:13.547Z,6.83
2017-09-26T14:33:41.020Z,6.43
2017-09-26T14:36:08.732Z,5.90
2017-09-26T14:38:35.998Z,6.03
2017-09-26T14:41:02.842Z,6.33
2017-09-26T14:43:30.087Z,6.40
2017-09-26T14:45:57.506Z,6.80
2017-09-26T14:48:25.075Z,6.20
2017-09-26T14:50:52.525Z,6.60
2017-09-26T14:53:19.157Z,5.80
2017-09-26T14:55:45.360Z,5.97
2017-09-26T14:58:11.670Z,5.53
2017-09-26T15:00:39.702Z,5.60
2017-09-26T15:03:06.472Z,5.80
2017-09-26T15:05:33.445Z,5.67
2017-09-26T15:07:59.680Z,6.30
2017-09-26T15:10:26.451Z,6.03
2017-09-26T15:12:53.736Z,5.93
2017-09-26T15:15:21.461Z,6.23
2017-09-26T15:17:48.092Z,6.00
2017-09-26T15:20:15.113Z,5.87
2017-09-26T15:22:44.152Z,6.00
2017-09-26T15:25:11.658Z,6.00
2017-09-26T15:27:38.873Z,6.17
2017-09-26T15:30:05.950Z,6.90
2017-09-26T15:32:34.633Z,6.80
2017-09-26T15:35:01.020Z,6.43
2017-09-26T15:37:28.993Z,6.00
2017-09-26T15:39:55.632Z,6.03
2017-09-26T15:42:23.279Z,6.50
2017-09-26T15:44:50.847Z,6.43
2017-09-26T15:47:17.136Z,6.30
2017-09-26T15:49:46.477Z,6.30
2017-09-26T15:52:12.996Z,5.70
2017-09-26T15:54:40.991Z,6.30
2017-09-26T15:57:07.269Z,6.07
2017-09-26T15:59:34.026Z,5.87
2017-09-26T16:02:00.630Z,6.00
2017-09-26T16:04:28.331Z,5.43
2017-09-26T16:06:56.029Z,5.80
2017-09-26T16:09:22.244Z,6.07
2017-09-26T16:11:49.148Z,5.30
2017-09-26T16:14:16.381Z,5.83
2017-09-26T16:16:44.399Z,6.60
2017-09-26T16:19:10.622Z,5.63
2017-09-26T16:21:37.100Z,6.47
2017-09-26T16:24:04.651Z,6.10
2017-09-26T16:26:31.955Z,5.87
2017-09-26T16:29:01.863Z,5.33
2017-09-26T16:44:28.864Z,9.73
2017-09-26T16:46:56.880Z,11.00
2017-09-26T16:49:23.773Z,8.97
2017-09-26T16:51:50.934Z,12.47
2017-09-26T16:54:18.084Z,7.07
2017-09-26T16:56:44.288Z,6.90
2017-09-26T16:59:10.687Z,6.20
2017-09-26T17:01:37.547Z,8.60
2017-09-26T17:04:03.784Z,7.23
2017-09-26T17:06:30.519Z,8.10
2017-09-26T17:08:58.264Z,6.50
2017-09-26T17:11:24.661Z,9.03
2017-09-26T17:13:52.229Z,16.10
2017-09-26T17:16:19.016Z,12.33
2017-09-26T17:18:45.758Z,19.13
2017-09-26T17:21:12.045Z,18.30
2017-09-26T17:23:39.255Z,16.30
2017-09-26T17:26:06.794Z,13.27
2017-09-26T17:28:33.121Z,11.57
2017-09-26T17:31:00.604Z,11.23
2017-09-26T17:33:28.489Z,9.40
2017-09-26T17:35:55.078Z,9.77
2017-09-26T17:38:22.114Z,11.13
2017-09-26T17:40:49.589Z,10.83
2017-09-26T17:43:15.868Z,11.20
2017-09-26T17:45:42.089Z,12.40
2017-09-26T17:48:08.776Z,16.37
2017-09-26T17:50:36.307Z,19.77
2017-09-26T17:53:04.295Z,18.30
2017-09-26T17:55:30.737Z,20.00
2017-09-26T17:57:57.230Z,13.30
2017-09-26T18:00:24.259Z,13.23
2017-09-26T18:02:51.792Z,10.07
2017-09-26T18:05:18.822Z,9.80
2017-09-26T18:07:45.135Z,8.93
2017-09-26T18:10:11.973Z,9.03
2017-09-26T18:12:38.463Z,10.40
2017-09-26T18:15:05.459Z,9.17
2017-09-26T18:17:31.795Z,7.87
2017-09-26T18:19:58.029Z,10.23
2017-09-26T18:22:24.704Z,9.50
2017-09-26T18:24:52.213Z,10.20
2017-09-26T18:27:18.463Z,10.43
2017-09-26T18:29:44.875Z,9.20
2017-09-26T18:32:11.792Z,9.70
2017-09-26T18:34:38.749Z,10.70
2017-09-26T18:37:05.120Z,9.33
2017-09-26T18:39:33.013Z,9.13
2017-09-26T18:41:59.455Z,9.40
2017-09-26T18:44:27.667Z,11.10
2017-09-26T18:46:54.460Z,9.93
2017-09-26T18:49:21.440Z,10.80
2017-09-26T18:51:47.698Z,12.63
2017-09-26T18:54:14.488Z,13.80
2017-09-26T18:56:41.193Z,11.10
2017-09-26T18:59:08.261Z,12.83
2017-09-26T19:01:35.865Z,13.23
2017-09-26T19:04:02.502Z,13.67
2017-09-26T19:06:29.516Z,14.00
2017-09-26T19:08:56.308Z,14.60
2017-09-26T19:11:24.164Z,14.50
2017-09-26T19:13:50.444Z,13.43
2017-09-26T19:16:17.814Z,13.67
2017-09-26T19:18:45.142Z,13.13
2017-09-26T19:21:13.780Z,13.47
2017-09-26T19:23:40.572Z,12.50
2017-09-26T19:26:06.785Z,11.53
2017-09-26T19:28:33.222Z,13.43
2017-09-26T19:31:00.208Z,14.70
2017-09-26T19:33:27.108Z,12.90
2017-09-26T19:35:54.539Z,11.90
2017-09-26T19:38:20.896Z,11.63
2017-09-26T19:40:48.861Z,13.10
2017-09-26T19:43:16.560Z,13.17
2017-09-26T19:45:43.174Z,13.83
2017-09-26T19:48:10.282Z,13.03
2017-09-26T19:50:36.511Z,14.27
2017-09-26T19:53:02.734Z,13.00
2017-09-26T19:55:29.204Z,12.97
2017-09-26T19:57:56.317Z,13.00
2017-09-26T20:00:22.881Z,13.40
2017-09-26T20:02:50.382Z,13.00
2017-09-26T20:05:17.843Z,12.60
2017-09-26T20:07:45.511Z,11.60
2017-09-26T20:10:12.274Z,12.13
2017-09-26T20:12:39.945Z,12.93
2017-09-26T20:15:06.973Z,12.70
2017-09-26T20:17:34.504Z,12.70
2017-09-26T20:20:00.958Z,12.83
2017-09-26T20:22:27.789Z,11.57
2017-09-26T20:24:54.534Z,11.87
2017-09-26T20:27:21.813Z,12.23
2017-09-26T20:29:48.353Z,11.33
2017-09-26T20:32:15.533Z,12.10
2017-09-26T20:34:43.276Z,12.20
2017-09-26T20:37:11.495Z,11.27
2017-09-26T20:39:38.236Z,11.73
2017-09-26T20:42:04.490Z,12.17
2017-09-26T20:44:31.694Z,11.60
2017-09-26T20:46:59.236Z,11.03
2017-09-26T20:49:26.217Z,12.30
2017-09-26T20:51:52.950Z,10.90
2017-09-26T20:54:19.191Z,9.90
2017-09-26T20:56:46.404Z,10.57
2017-09-26T20:59:13.915Z,10.40
2017-09-26T21:01:40.888Z,9.50
2017-09-26T21:04:08.509Z,9.43
2017-09-26T21:06:35.251Z,9.83
2017-09-26T21:09:01.500Z,10.03
2017-09-26T21:11:28.353Z,9.93
2017-09-26T21:13:55.756Z,9.23
2017-09-26T21:16:21.985Z,8.80
2017-09-26T21:18:49.217Z,8.93
2017-09-26T21:21:16.181Z,9.10
2017-09-26T21:23:42.625Z,9.77
2017-09-26T21:26:10.646Z,8.20
2017-09-26T21:28:36.846Z,8.80
2017-09-26T21:31:04.167Z,7.50
2017-09-26T21:33:32.292Z,8.60
2017-09-26T21:35:59.035Z,9.23
2017-09-26T21:38:25.261Z,8.90
2017-09-26T21:40:51.969Z,10.17
2017-09-26T21:43:19.359Z,7.93
2017-09-26T21:45:45.586Z,9.10
2017-09-26T21:48:12.438Z,9.37
2017-09-26T21:50:38.703Z,9.13
2017-09-26T21:53:05.145Z,9.63
2017-09-26T21:55:32.001Z,9.80
2017-09-26T21:57:58.206Z,9.57
2017-09-26T22:00:25.059Z,9.40
2017-09-26T22:02:52.250Z,10.13
2017-09-26T22:05:19.026Z,9.50
2017-09-26T22:07:45.651Z,10.23
2017-09-26T22:10:13.849Z,9.97
2017-09-26T22:12:40.397Z,10.43
2017-09-26T22:15:07.988Z,9.80
2017-09-26T22:17:35.229Z,8.90
2017-09-26T22:20:02.996Z,9.63
2017-09-26T22:22:29.739Z,10.20
2017-09-26T22:24:56.533Z,10.33
2017-09-26T22:27:23.302Z,10.40
2017-09-26T22:29:49.837Z,8.87
2017-09-26T22:32:16.633Z,9.50
2017-09-26T22:34:44.082Z,11.07
2017-09-26T22:37:11.675Z,8.20
2017-09-26T22:39:39.235Z,9.73
2017-09-26T22:42:05.541Z,10.63
2017-09-26T22:44:32.730Z,9.80
2017-09-26T22:46:59.888Z,9.73
2017-09-26T22:49:26.517Z,10.30
2017-09-26T22:51:53.539Z,9.60
2017-09-26T22:54:19.986Z,9.40
2017-09-26T22:56:47.387Z,10.20
2017-09-26T22:59:15.976Z,10.20
2017-09-26T23:01:44.019Z,10.00
2017-09-26T23:04:10.735Z,11.07
2017-09-26T23:06:37.508Z,10.30
2017-09-26T23:09:04.295Z,11.10
2017-09-26T23:11:31.272Z,10.03
2017-09-26T23:13:57.497Z,9.47
2017-09-26T23:16:23.714Z,9.67
2017-09-26T23:18:50.019Z,10.53
2017-09-26T23:21:17.208Z,11.03
2017-09-26T23:23:43.949Z,9.70
2017-09-26T23:26:10.165Z,10.00
2017-09-26T23:28:36.371Z,11.13
2017-09-26T23:31:02.606Z,10.30
2017-09-26T23:33:28.848Z,10.60
2017-09-26T23:35:55.216Z,11.03
2017-09-26T23:38:22.328Z,11.17
2017-09-26T23:40:49.771Z,10.23
2017-09-26T23:43:16.166Z,10.73
2017-09-26T23:45:42.962Z,9.60
2017-09-26T23:48:09.989Z,9.70
2017-09-26T23:50:37.135Z,9.93
2017-09-26T23:53:05.813Z,8.60
2017-09-26T23:55:32.862Z,10.30
2017-09-26T23:57:59.182Z,9.73
